Time;durP1;ratioP1;P1;durP2;ratioP2;P2;SDS_P1;SDS_P2;PMS_P1;PMS_P2;Temp;Humidity;BMP_temperature;BMP_pressure;BME280_temperature;BME280_humidity;BME280_pressure;Samples;Min_cycle;Max_cycle;Signal;HPM_P1;HPM_P2
2022/01/06 00:00:28;;;;;;;17.98;2.83;;;3.90;99.90;;;;;;5040484;28;20041;-39
2022/01/06 00:02:56;;;;;;;16.08;2.45;;;3.90;99.90;;;;;;5026392;28;20439;-39
2022/01/06 00:05:23;;;;;;;22.45;3.05;;;3.90;99.90;;;;;;5046430;28;20052;-39
2022/01/06 00:07:50;;;;;;;19.73;3.08;;;3.90;99.90;;;;;;5048608;28;20450;-39
2022/01/06 00:10:17;;;;;;;14.23;2.67;;;3.90;99.90;;;;;;5038488;28;20057;-39
2022/01/06 00:12:49;;;;;;;21.48;2.55;;;3.90;99.90;;;;;;5024947;28;20080;-39
2022/01/06 00:15:32;;;;;;;;;;;3.90;99.90;;;;;;5052222;28;20041;-39
2022/01/06 00:18:18;;;;;;;14.45;2.83;;;3.80;99.90;;;;;;5044540;28;20276;-39
2022/01/06 00:23:32;;;;;;;27.20;2.85;;;3.80;99.90;;;;;;5064577;28;20128;-39
2022/01/06 00:26:00;;;;;;;21.67;3.28;;;3.70;99.90;;;;;;5069490;28;20409;-39
2022/01/06 00:28:27;;;;;;;23.83;4.05;;;3.70;99.90;;;;;;5043454;28;20054;-39
2022/01/06 00:30:54;;;;;;;30.77;3.95;;;3.80;99.90;;;;;;5059360;28;20048;-39
2022/01/06 00:33:22;;;;;;;29.60;3.13;;;3.80;99.90;;;;;;5034672;28;20061;-39
2022/01/06 00:35:49;;;;;;;22.83;3.45;;;3.90;99.90;;;;;;5065606;28;20504;-39
2022/01/06 00:38:16;;;;;;;27.77;3.60;;;3.90;99.90;;;;;;5036067;28;20053;-39
2022/01/06 00:40:43;;;;;;;21.50;3.10;;;3.90;99.90;;;;;;5045922;28;20072;-39
2022/01/06 00:43:11;;;;;;;26.60;3.22;;;3.80;99.90;;;;;;5052974;28;20080;-39
2022/01/06 00:45:38;;;;;;;19.55;2.47;;;3.80;99.90;;;;;;5063175;28;20452;-39
2022/01/06 00:48:07;;;;;;;17.77;3.03;;;3.80;99.90;;;;;;5059766;28;20052;-39
2022/01/06 00:50:35;;;;;;;27.85;3.38;;;3.70;99.90;;;;;;5028358;28;20148;-40
2022/01/06 00:53:04;;;;;;;26.50;3.72;;;3.70;99.90;;;;;;5027630;28;20261;-40
2022/01/06 00:55:32;;;;;;;28.08;3.63;;;3.60;99.90;;;;;;5038484;28;20140;-40
2022/01/06 00:57:59;;;;;;;23.30;3.80;;;3.60;99.90;;;;;;5062485;28;20132;-40
2022/01/06 01:00:29;;;;;;;25.13;2.90;;;3.50;99.90;;;;;;5051497;28;20057;-40
2022/01/06 01:02:56;;;;;;;26.10;3.30;;;3.50;99.90;;;;;;5037071;28;20053;-39
2022/01/06 01:05:23;;;;;;;23.23;3.65;;;3.50;99.90;;;;;;5028965;28;20512;-40
2022/01/06 01:07:51;;;;;;;22.52;3.20;;;3.50;99.90;;;;;;5053612;28;20135;-40
2022/01/06 01:10:18;;;;;;;30.88;3.55;;;3.50;99.90;;;;;;5048111;28;20500;-41
2022/01/06 01:12:48;;;;;;;30.67;3.97;;;3.40;99.90;;;;;;5065889;28;20045;-41
2022/01/06 01:15:19;;;;;;;32.30;4.50;;;3.40;99.90;;;;;;5041194;28;20103;-41
2022/01/06 01:17:48;;;;;;;23.95;3.08;;;3.40;99.90;;;;;;5040056;28;20056;-40
2022/01/06 01:20:15;;;;;;;28.10;3.70;;;3.30;99.90;;;;;;5036618;28;20095;-41
2022/01/06 01:22:42;;;;;;;24.83;3.50;;;3.30;99.90;;;;;;5050031;28;20045;-41
2022/01/06 01:25:10;;;;;;;34.00;4.50;;;3.30;99.90;;;;;;5044255;28;20082;-41
2022/01/06 01:27:40;;;;;;;27.95;3.72;;;3.30;99.90;;;;;;5043221;28;20057;-42
2022/01/06 01:30:11;;;;;;;24.95;3.15;;;3.20;99.90;;;;;;5049116;28;20056;-40
2022/01/06 01:32:39;;;;;;;29.10;3.78;;;3.20;99.90;;;;;;5027559;28;20041;-40
2022/01/06 01:35:08;;;;;;;34.17;3.17;;;3.10;99.90;;;;;;5042467;28;20477;-41
2022/01/06 01:37:35;;;;;;;28.65;3.58;;;3.10;99.90;;;;;;5048180;28;20563;-40
2022/01/06 01:40:03;;;;;;;19.33;2.88;;;3.10;99.90;;;;;;5046851;28;20518;-40
2022/01/06 01:42:31;;;;;;;24.45;3.42;;;3.00;99.90;;;;;;5046877;28;20397;-41
2022/01/06 01:44:58;;;;;;;26.20;4.22;;;3.00;99.90;;;;;;5027959;28;20045;-40
2022/01/06 01:47:28;;;;;;;29.17;3.60;;;3.00;99.90;;;;;;5027745;28;20052;-40
2022/01/06 01:49:59;;;;;;;26.75;3.63;;;2.90;99.90;;;;;;5028044;28;20053;-41
2022/01/06 01:52:26;;;;;;;19.42;3.25;;;2.90;99.90;;;;;;5040766;28;20049;-41
2022/01/06 01:54:53;;;;;;;32.67;4.45;;;2.90;99.90;;;;;;5049943;28;20059;-41
2022/01/06 01:57:20;;;;;;;27.77;3.53;;;2.80;99.90;;;;;;5048075;28;20049;-41
2022/01/06 01:59:48;;;;;;;31.52;5.18;;;2.80;99.90;;;;;;5055346;28;20045;-40
2022/01/06 02:02:15;;;;;;;32.00;4.18;;;2.80;99.90;;;;;;5052730;28;20067;-41
2022/01/06 02:04:42;;;;;;;25.73;3.72;;;2.80;99.90;;;;;;5035528;28;20132;-40
2022/01/06 02:07:09;;;;;;;29.75;4.15;;;2.80;99.90;;;;;;5033891;28;20092;-40
2022/01/06 02:09:36;;;;;;;35.38;3.88;;;2.80;99.90;;;;;;5042307;28;20122;-40
2022/01/06 02:12:04;;;;;;;26.45;3.85;;;2.80;99.90;;;;;;5026075;28;20045;-40
2022/01/06 02:14:33;;;;;;;22.42;3.25;;;2.80;99.90;;;;;;5043512;28;20121;-40
2022/01/06 02:17:02;;;;;;;28.35;3.92;;;2.80;99.90;;;;;;5055187;28;20128;-40
2022/01/06 02:19:29;;;;;;;27.40;3.55;;;2.70;99.90;;;;;;5030128;28;20040;-40
2022/01/06 02:21:57;;;;;;;29.67;3.78;;;2.70;99.90;;;;;;5038644;28;20103;-40
2022/01/06 02:24:24;;;;;;;15.25;3.08;;;2.70;99.90;;;;;;5052375;28;20083;-40
2022/01/06 02:26:51;;;;;;;35.60;3.78;;;2.70;99.90;;;;;;5028750;28;20697;-40
2022/01/06 02:29:19;;;;;;;31.55;3.70;;;2.70;99.90;;;;;;5038338;28;20096;-40
2022/01/06 02:31:47;;;;;;;25.10;3.40;;;2.70;99.90;;;;;;5040948;28;20128;-40
2022/01/06 02:34:14;;;;;;;27.25;4.22;;;2.70;99.90;;;;;;5053890;28;20091;-40
2022/01/06 02:36:41;;;;;;;27.23;4.05;;;2.70;99.90;;;;;;5056768;28;20500;-40
2022/01/06 02:39:10;;;;;;;25.23;3.55;;;2.70;99.90;;;;;;5048544;28;20095;-40
2022/01/06 02:41:37;;;;;;;31.85;3.80;;;2.60;99.90;;;;;;5050792;28;20542;-39
2022/01/06 02:44:04;;;;;;;18.90;3.85;;;2.60;99.90;;;;;;5051666;28;20059;-39
2022/01/06 02:46:31;;;;;;;21.40;3.00;;;2.60;99.90;;;;;;5046563;28;20045;-39
2022/01/06 02:48:58;;;;;;;27.23;4.30;;;2.50;99.90;;;;;;5044500;28;20080;-39
2022/01/06 02:51:25;;;;;;;32.08;3.45;;;2.50;99.90;;;;;;5040868;28;20052;-39
2022/01/06 02:53:53;;;;;;;24.25;3.20;;;2.50;99.90;;;;;;5043081;28;20128;-39
2022/01/06 02:56:21;;;;;;;31.13;4.22;;;2.50;99.90;;;;;;5030433;28;20084;-39
2022/01/06 02:58:48;;;;;;;30.05;4.20;;;2.40;99.90;;;;;;5040113;28;20064;-39
2022/01/06 03:01:15;;;;;;;33.42;3.90;;;2.50;99.90;;;;;;5042689;28;20527;-39
2022/01/06 03:03:42;;;;;;;26.13;3.63;;;2.40;99.90;;;;;;5049750;28;20055;-39
2022/01/06 03:06:09;;;;;;;22.23;3.13;;;2.40;99.90;;;;;;5021826;28;20042;-39
2022/01/06 03:08:37;;;;;;;29.20;4.22;;;2.40;99.90;;;;;;5050704;28;20041;-39
2022/01/06 03:11:06;;;;;;;22.52;3.30;;;2.50;99.90;;;;;;5025013;28;20128;-39
2022/01/06 03:13:35;;;;;;;26.17;3.20;;;2.40;99.90;;;;;;5030877;28;20151;-39
2022/01/06 03:16:02;;;;;;;27.90;3.90;;;2.40;99.90;;;;;;5048612;28;20040;-38
2022/01/06 03:18:29;;;;;;;21.95;3.28;;;2.40;99.90;;;;;;5044889;28;20056;-38
2022/01/06 03:20:56;;;;;;;12.10;2.22;;;2.40;99.90;;;;;;5046637;28;20057;-38
2022/01/06 03:23:23;;;;;;;17.10;2.70;;;2.40;99.90;;;;;;5024525;28;20128;-39
2022/01/06 03:25:50;;;;;;;14.48;2.58;;;2.30;99.90;;;;;;5028312;28;20129;-38
2022/01/06 03:28:17;;;;;;;26.67;3.70;;;2.30;99.90;;;;;;5026564;28;20137;-38
2022/01/06 03:30:46;;;;;;;17.90;2.70;;;2.30;99.90;;;;;;5029940;28;20052;-38
2022/01/06 03:33:13;;;;;;;25.08;3.22;;;2.20;99.90;;;;;;5041883;28;20128;-38
2022/01/06 03:35:40;;;;;;;31.60;3.28;;;2.20;99.90;;;;;;5024682;28;20077;-38
2022/01/06 03:38:07;;;;;;;24.50;3.00;;;2.20;99.90;;;;;;5029445;28;20056;-38
2022/01/06 03:40:34;;;;;;;27.00;3.67;;;2.20;99.90;;;;;;5028368;28;20132;-37
2022/01/06 03:43:01;;;;;;;23.50;3.22;;;2.10;99.90;;;;;;5025905;28;20045;-38
2022/01/06 03:45:28;;;;;;;15.88;2.28;;;2.10;99.90;;;;;;5031067;28;20049;-38
2022/01/06 03:47:56;;;;;;;21.00;3.47;;;2.10;99.90;;;;;;5021108;28;20053;-38
2022/01/06 03:50:23;;;;;;;17.92;2.40;;;2.00;99.90;;;;;;5029683;28;20084;-38
2022/01/06 03:52:50;;;;;;;19.80;3.05;;;2.00;99.90;;;;;;5055911;28;20087;-39
2022/01/06 03:55:20;;;;;;;15.85;2.40;;;2.00;99.90;;;;;;5049264;28;20049;-38
2022/01/06 03:57:47;;;;;;;21.40;2.90;;;2.00;99.90;;;;;;5043166;28;20049;-37
2022/01/06 04:00:16;;;;;;;18.58;2.83;;;1.90;99.90;;;;;;5026370;28;20455;-37
2022/01/06 04:02:43;;;;;;;15.82;2.55;;;1.90;99.90;;;;;;5049097;28;20060;-37
2022/01/06 04:05:12;;;;;;;14.32;2.38;;;1.90;99.90;;;;;;5034951;28;20480;-37
2022/01/06 04:07:40;;;;;;;28.63;3.65;;;1.80;99.90;;;;;;5047024;28;20104;-37
2022/01/06 04:10:08;;;;;;;14.50;2.88;;;1.80;99.90;;;;;;5049643;28;20451;-37
2022/01/06 04:12:36;;;;;;;19.80;2.53;;;1.80;99.90;;;;;;5051555;28;20106;-37
2022/01/06 04:15:03;;;;;;;14.55;2.50;;;1.70;99.90;;;;;;5029830;28;20045;-37
2022/01/06 04:17:30;;;;;;;14.38;2.50;;;1.70;99.90;;;;;;5051643;28;20453;-36
2022/01/06 04:19:57;;;;;;;20.10;2.85;;;1.70;99.90;;;;;;5029409;28;20084;-37
2022/01/06 04:22:26;;;;;;;18.50;3.33;;;1.60;99.90;;;;;;5027393;28;20137;-37
2022/01/06 04:24:53;;;;;;;19.77;2.53;;;1.60;99.90;;;;;;5041098;28;20085;-37
2022/01/06 04:27:20;;;;;;;15.98;2.47;;;1.60;99.90;;;;;;5030793;28;20081;-36
2022/01/06 04:29:47;;;;;;;18.33;2.90;;;1.60;99.90;;;;;;5047388;28;20132;-37
2022/01/06 04:32:14;;;;;;;14.93;2.50;;;1.60;99.90;;;;;;5049099;28;20126;-37
2022/01/06 04:34:41;;;;;;;22.17;2.72;;;1.50;99.90;;;;;;5034278;28;20059;-36
2022/01/06 04:37:08;;;;;;;15.52;2.40;;;1.50;99.90;;;;;;5049393;28;20053;-37
2022/01/06 04:39:36;;;;;;;17.85;2.90;;;1.50;99.90;;;;;;5023911;28;20551;-37
2022/01/06 04:42:03;;;;;;;19.25;2.90;;;1.50;99.90;;;;;;5043438;28;20053;-37
2022/01/06 04:44:30;;;;;;;13.88;2.30;;;1.50;99.90;;;;;;5043763;28;20114;-37
2022/01/06 04:46:57;;;;;;;11.13;2.15;;;1.50;99.90;;;;;;5025611;28;20077;-36
2022/01/06 04:49:24;;;;;;;18.92;2.80;;;1.50;99.90;;;;;;5034130;28;20132;-36
2022/01/06 04:51:51;;;;;;;16.48;2.58;;;1.50;99.90;;;;;;5024426;28;20111;-37
2022/01/06 04:54:18;;;;;;;15.18;2.58;;;1.40;99.90;;;;;;5027796;28;20089;-37
2022/01/06 04:56:47;;;;;;;17.17;2.90;;;1.40;99.90;;;;;;5044169;28;20523;-37
2022/01/06 04:59:14;;;;;;;17.00;2.35;;;1.40;99.90;;;;;;5033846;28;20139;-37
2022/01/06 05:01:41;;;;;;;17.38;2.75;;;1.40;99.90;;;;;;5023286;28;20115;-37
2022/01/06 05:04:08;;;;;;;13.05;1.90;;;1.30;99.90;;;;;;5029568;28;20130;-37
2022/01/06 05:06:35;;;;;;;16.15;2.22;;;1.30;99.90;;;;;;5027715;28;20104;-37
2022/01/06 05:09:02;;;;;;;14.73;2.17;;;1.30;99.90;;;;;;5021464;28;20509;-37
2022/01/06 05:11:29;;;;;;;12.40;3.65;;;1.30;99.90;;;;;;5028978;28;20096;-37
2022/01/06 05:13:57;;;;;;;15.30;2.55;;;1.30;99.90;;;;;;5022587;28;20552;-38
2022/01/06 05:16:24;;;;;;;19.17;2.65;;;1.30;99.90;;;;;;5025539;28;20052;-37
2022/01/06 05:18:51;;;;;;;14.23;2.53;;;1.20;99.90;;;;;;5031607;28;20063;-37
2022/01/06 05:21:18;;;;;;;15.02;2.63;;;1.20;99.90;;;;;;5033012;28;20053;-38
2022/01/06 05:23:46;;;;;;;18.10;3.38;;;1.20;99.90;;;;;;5026402;28;20108;-38
2022/01/06 05:26:13;;;;;;;11.27;2.42;;;1.10;99.90;;;;;;5029251;28;20045;-38
2022/01/06 05:28:40;;;;;;;20.00;2.92;;;1.20;99.90;;;;;;5027456;28;20088;-38
2022/01/06 05:31:08;;;;;;;13.85;2.22;;;1.10;99.90;;;;;;5018129;28;20124;-38
2022/01/06 05:33:35;;;;;;;16.20;2.50;;;1.10;99.90;;;;;;5026642;28;20076;-39
2022/01/06 05:36:02;;;;;;;15.10;2.75;;;1.10;99.90;;;;;;5022596;28;20052;-39
2022/01/06 05:38:29;;;;;;;8.52;2.33;;;1.10;99.90;;;;;;5022960;28;20128;-38
2022/01/06 05:40:56;;;;;;;9.63;2.28;;;1.00;99.90;;;;;;5027669;28;20053;-38
2022/01/06 05:43:24;;;;;;;10.23;2.22;;;1.10;99.90;;;;;;5025181;28;20052;-38
2022/01/06 05:45:53;;;;;;;14.73;3.13;;;1.00;99.90;;;;;;5024147;28;20050;-38
2022/01/06 05:48:22;;;;;;;19.27;3.30;;;1.00;99.90;;;;;;5026395;28;20537;-38
2022/01/06 05:50:49;;;;;;;17.45;3.40;;;1.00;99.90;;;;;;5035224;28;20508;-38
2022/01/06 05:53:16;;;;;;;14.63;2.60;;;0.90;99.90;;;;;;5027822;28;20103;-38
2022/01/06 05:55:43;;;;;;;16.27;2.72;;;0.90;99.90;;;;;;5027860;28;20051;-38
2022/01/06 05:58:10;;;;;;;16.65;3.35;;;0.90;99.90;;;;;;5019878;28;20046;-38
2022/01/06 06:00:37;;;;;;;17.58;3.20;;;0.90;99.90;;;;;;5026127;28;20497;-38
2022/01/06 06:03:04;;;;;;;13.88;3.78;;;0.90;99.90;;;;;;5029767;28;20119;-38
2022/01/06 06:05:32;;;;;;;9.57;3.08;;;0.80;99.90;;;;;;5025343;28;20071;-38
2022/01/06 06:07:59;;;;;;;12.25;2.95;;;0.90;99.90;;;;;;5025143;28;20137;-38
2022/01/06 06:10:26;;;;;;;11.55;2.53;;;0.80;99.90;;;;;;5020160;28;20057;-38
2022/01/06 06:12:53;;;;;;;25.33;8.30;;;0.80;99.90;;;;;;5023293;28;20060;-38
2022/01/06 06:15:21;;;;;;;22.33;4.38;;;0.80;99.90;;;;;;5033213;28;20124;-38
2022/01/06 06:17:48;;;;;;;20.95;4.47;;;0.80;99.90;;;;;;5028636;28;20068;-38
2022/01/06 06:20:15;;;;;;;13.60;3.80;;;0.80;99.90;;;;;;5030779;28;20112;-38
2022/01/06 06:22:43;;;;;;;14.27;4.53;;;0.80;99.90;;;;;;5033351;28;20501;-38
2022/01/06 06:25:10;;;;;;;23.60;5.07;;;0.70;99.90;;;;;;5033995;28;20137;-38
2022/01/06 06:27:37;;;;;;;25.10;4.30;;;0.80;99.90;;;;;;5012764;28;20054;-39
2022/01/06 06:30:06;;;;;;;19.00;4.80;;;0.70;99.90;;;;;;5013842;28;20075;-39
2022/01/06 06:32:33;;;;;;;13.50;3.10;;;0.70;99.90;;;;;;5020495;28;20409;-39
2022/01/06 06:35:00;;;;;;;14.63;3.45;;;0.70;99.90;;;;;;5022382;28;20131;-39
2022/01/06 06:37:28;;;;;;;17.83;3.80;;;0.70;99.90;;;;;;5024737;28;20103;-39
2022/01/06 06:39:57;;;;;;;25.33;6.53;;;0.70;99.90;;;;;;5030690;28;20042;-39
2022/01/06 06:42:24;;;;;;;17.20;4.20;;;0.60;99.90;;;;;;5023274;28;20073;-39
2022/01/06 06:44:51;;;;;;;18.73;3.88;;;0.70;99.90;;;;;;5023178;28;20054;-39
2022/01/06 06:47:18;;;;;;;17.40;4.10;;;0.60;99.90;;;;;;5026157;28;20638;-39
2022/01/06 06:49:45;;;;;;;16.42;3.88;;;0.60;99.90;;;;;;5019335;28;20107;-38
2022/01/06 06:52:12;;;;;;;20.30;4.13;;;0.60;99.90;;;;;;5018239;28;20141;-39
2022/01/06 06:54:39;;;;;;;26.58;4.15;;;0.60;99.90;;;;;;5003039;28;20060;-39
2022/01/06 06:57:08;;;;;;;13.20;3.15;;;0.60;99.90;;;;;;5024097;28;20053;-38
2022/01/06 06:59:35;;;;;;;20.23;3.40;;;0.50;99.90;;;;;;5023771;28;20453;-38
2022/01/06 07:02:02;;;;;;;15.68;3.33;;;0.60;99.90;;;;;;5029187;28;20059;-38
2022/01/06 07:04:29;;;;;;;18.67;3.17;;;0.50;99.90;;;;;;5027235;28;20111;-38
2022/01/06 07:06:56;;;;;;;19.60;3.72;;;0.40;99.90;;;;;;5029075;28;20049;-38
2022/01/06 07:09:23;;;;;;;12.52;2.95;;;0.50;99.90;;;;;;5039203;28;20056;-38
2022/01/06 07:11:50;;;;;;;23.88;3.85;;;0.50;99.90;;;;;;5035327;28;20071;-38
2022/01/06 07:14:18;;;;;;;21.17;3.65;;;0.40;99.90;;;;;;5032005;28;20440;-38
2022/01/06 07:16:45;;;;;;;24.67;3.13;;;0.40;99.90;;;;;;5044377;28;20059;-38
2022/01/06 07:19:12;;;;;;;13.30;2.88;;;0.40;99.90;;;;;;5026415;28;20080;-38
2022/01/06 07:21:39;;;;;;;12.35;3.10;;;0.40;99.90;;;;;;5034033;28;20136;-39
2022/01/06 07:24:07;;;;;;;9.38;2.10;;;0.40;99.90;;;;;;5038600;28;20111;-39
2022/01/06 07:26:34;;;;;;;15.15;2.63;;;0.40;99.90;;;;;;5031339;28;20096;-39
2022/01/06 07:29:01;;;;;;;17.83;3.17;;;0.40;99.90;;;;;;5034272;28;20128;-39
2022/01/06 07:31:29;;;;;;;20.23;3.53;;;0.40;99.90;;;;;;5053476;28;20052;-38
2022/01/06 07:33:56;;;;;;;18.38;3.67;;;0.40;99.90;;;;;;5066323;28;20040;-38
2022/01/06 07:36:23;;;;;;;77.93;29.55;;;0.40;99.90;;;;;;5059428;28;20052;-38
2022/01/06 07:38:50;;;;;;;47.60;18.38;;;0.50;99.90;;;;;;5041299;28;20627;-38
2022/01/06 07:41:17;;;;;;;24.77;4.32;;;0.40;99.90;;;;;;5035380;28;20063;-38
2022/01/06 07:43:44;;;;;;;22.52;4.97;;;0.40;99.90;;;;;;5038621;28;20152;-38
2022/01/06 07:46:11;;;;;;;20.55;3.72;;;0.40;99.90;;;;;;5038829;28;20127;-38
2022/01/06 07:48:55;;;;;;;28.67;4.05;;;0.40;99.90;;;;;;5043595;28;20130;-38
2022/01/06 07:51:22;;;;;;;23.27;4.25;;;0.40;99.90;;;;;;5035866;28;20053;-38
2022/01/06 07:53:49;;;;;;;19.08;4.07;;;0.40;99.90;;;;;;5028821;28;20129;-39
2022/01/06 07:56:16;;;;;;;23.95;4.25;;;0.40;99.90;;;;;;5045192;28;20053;-38
2022/01/06 07:58:43;;;;;;;17.80;4.40;;;0.40;99.90;;;;;;5047612;28;20408;-38
2022/01/06 08:01:10;;;;;;;21.45;5.75;;;0.40;99.90;;;;;;5050794;28;20054;-38
2022/01/06 08:03:37;;;;;;;15.20;3.97;;;0.40;99.90;;;;;;5046666;28;20451;-38
2022/01/06 08:06:05;;;;;;;28.35;4.57;;;0.40;99.90;;;;;;5046429;28;20080;-38
2022/01/06 08:08:32;;;;;;;25.23;3.85;;;0.40;99.90;;;;;;5030000;28;20381;-39
2022/01/06 08:10:59;;;;;;;25.65;4.80;;;0.40;99.90;;;;;;5025979;28;20250;-37
2022/01/06 08:13:26;;;;;;;24.75;4.80;;;0.40;99.90;;;;;;5045355;28;20073;-38
2022/01/06 08:15:53;;;;;;;22.58;4.15;;;0.40;99.90;;;;;;5034783;28;20128;-38
2022/01/06 08:18:20;;;;;;;19.60;3.40;;;0.40;99.90;;;;;;5037449;28;20077;-39
2022/01/06 08:20:47;;;;;;;27.00;3.63;;;0.40;99.90;;;;;;5048963;28;20344;-38
2022/01/06 08:23:16;;;;;;;25.23;4.22;;;0.40;99.90;;;;;;5044105;28;20068;-38
2022/01/06 08:25:43;;;;;;;22.02;4.10;;;0.40;99.90;;;;;;5028464;28;20140;-39
2022/01/06 08:28:10;;;;;;;32.40;5.07;;;0.40;99.90;;;;;;5028950;28;20063;-38
2022/01/06 08:30:37;;;;;;;21.30;4.43;;;0.50;99.90;;;;;;5027506;28;20115;-38
2022/01/06 08:33:04;;;;;;;28.20;4.25;;;0.50;99.90;;;;;;5039485;28;20084;-38
2022/01/06 08:35:31;;;;;;;67.25;27.10;;;0.50;99.90;;;;;;5026637;28;20103;-38
2022/01/06 08:37:58;;;;;;;69.95;23.77;;;0.50;99.90;;;;;;5029816;28;20041;-38
2022/01/06 08:40:26;;;;;;;28.30;5.10;;;0.50;99.90;;;;;;5037492;28;20136;-38
2022/01/06 08:42:53;;;;;;;31.90;4.63;;;0.60;99.90;;;;;;5057936;28;20136;-38
2022/01/06 08:45:20;;;;;;;26.10;4.60;;;0.60;99.90;;;;;;5029519;28;20093;-38
2022/01/06 08:47:47;;;;;;;27.27;6.60;;;0.70;99.90;;;;;;5024300;28;20649;-39
2022/01/06 08:50:15;;;;;;;20.90;6.93;;;0.70;99.90;;;;;;5024669;28;20056;-38
2022/01/06 08:52:42;;;;;;;35.17;11.73;;;0.70;99.90;;;;;;5051145;28;20041;-38
2022/01/06 08:55:09;;;;;;;34.60;11.93;;;0.70;99.90;;;;;;5045881;28;20054;-38
2022/01/06 08:57:38;;;;;;;32.65;12.55;;;0.70;99.90;;;;;;5048102;28;20045;-38
2022/01/06 09:00:06;;;;;;;32.83;10.65;;;0.80;99.90;;;;;;5028740;28;20057;-38
2022/01/06 09:02:33;;;;;;;33.50;8.05;;;0.80;99.90;;;;;;5052236;28;20124;-38
2022/01/06 09:05:02;;;;;;;37.20;7.32;;;0.90;99.90;;;;;;5033487;28;20044;-39
2022/01/06 09:07:29;;;;;;;28.98;6.30;;;0.90;99.90;;;;;;5046433;28;20049;-38
2022/01/06 09:09:56;;;;;;;32.55;5.00;;;0.90;99.90;;;;;;5023944;28;20102;-39
2022/01/06 09:12:23;;;;;;;27.75;4.75;;;0.90;99.90;;;;;;5050658;28;20044;-39
2022/01/06 09:14:52;;;;;;;33.58;5.47;;;1.00;99.90;;;;;;5045184;28;20038;-38
2022/01/06 09:17:19;;;;;;;31.98;5.30;;;1.00;99.90;;;;;;5024418;28;20063;-38
2022/01/06 09:19:46;;;;;;;38.60;6.22;;;1.10;99.90;;;;;;5025972;28;20122;-38
2022/01/06 09:22:13;;;;;;;34.00;4.97;;;1.20;99.90;;;;;;5044637;28;20080;-39
2022/01/06 09:24:40;;;;;;;35.90;4.93;;;1.20;99.90;;;;;;5046815;28;20415;-38
2022/01/06 09:27:07;;;;;;;42.08;5.60;;;1.30;99.90;;;;;;5053713;28;20057;-38
2022/01/06 09:29:34;;;;;;;28.25;4.50;;;1.30;99.90;;;;;;5054536;28;20385;-39
2022/01/06 09:32:02;;;;;;;36.63;5.40;;;1.30;99.90;;;;;;5024598;28;20407;-39
2022/01/06 09:34:32;;;;;;;39.83;4.70;;;1.40;99.90;;;;;;5047981;28;20052;-38
2022/01/06 09:36:59;;;;;;;30.70;5.03;;;1.50;99.90;;;;;;5062402;28;20048;-38
2022/01/06 09:39:26;;;;;;;31.58;5.05;;;1.60;99.90;;;;;;5050846;28;20624;-38
2022/01/06 09:41:53;;;;;;;39.08;8.65;;;1.60;99.90;;;;;;5035791;28;20083;-39
2022/01/06 09:44:20;;;;;;;37.78;7.53;;;1.70;99.90;;;;;;5038057;28;20072;-39
2022/01/06 09:46:47;;;;;;;38.53;6.32;;;1.70;99.90;;;;;;5031393;28;20049;-38
2022/01/06 09:49:16;;;;;;;27.35;5.45;;;1.80;99.90;;;;;;5038331;28;20398;-39
2022/01/06 09:51:43;;;;;;;31.40;5.05;;;1.90;99.90;;;;;;5021597;28;20099;-39
2022/01/06 09:54:10;;;;;;;34.47;5.15;;;2.00;99.90;;;;;;5025959;28;20132;-39
2022/01/06 09:56:37;;;;;;;29.40;5.20;;;2.10;99.90;;;;;;5024883;28;20053;-40
2022/01/06 09:59:04;;;;;;;38.80;4.97;;;2.20;99.90;;;;;;5043446;28;20041;-39
2022/01/06 10:01:31;;;;;;;43.58;8.07;;;2.30;99.90;;;;;;5043728;28;20090;-39
2022/01/06 10:03:59;;;;;;;32.20;6.38;;;2.40;99.90;;;;;;5038718;28;20560;-38
2022/01/06 10:06:29;;;;;;;28.67;5.22;;;2.50;99.90;;;;;;5048529;28;20111;-37
2022/01/06 10:08:59;;;;;;;32.78;4.95;;;2.60;99.90;;;;;;5043254;28;20404;-37
2022/01/06 10:11:27;;;;;;;30.33;5.53;;;2.70;99.90;;;;;;5044730;28;20497;-39
2022/01/06 10:13:58;;;;;;;28.75;4.18;;;2.80;99.90;;;;;;5024986;28;20080;-39
2022/01/06 10:16:25;;;;;;;28.92;3.85;;;2.80;99.90;;;;;;5039845;28;20151;-38
2022/01/06 10:19:00;;;;;;;26.60;4.55;;;2.90;99.90;;;;;;5041313;28;20445;-39
2022/01/06 10:21:30;;;;;;;27.23;5.25;;;3.00;99.90;;;;;;5041972;28;20107;-39
2022/01/06 10:24:06;;;;;;;28.27;4.85;;;3.10;99.90;;;;;;5024893;28;20049;-39
2022/01/06 10:26:33;;;;;;;31.85;4.60;;;3.20;99.90;;;;;;5025367;28;20047;-39
2022/01/06 10:29:00;;;;;;;20.20;3.97;;;3.20;99.90;;;;;;5040332;28;20118;-38
2022/01/06 10:31:27;;;;;;;34.15;4.55;;;3.30;99.90;;;;;;5023936;28;20136;-38
2022/01/06 10:33:54;;;;;;;27.02;3.83;;;3.40;99.90;;;;;;5027769;28;20469;-39
2022/01/06 10:36:29;;;;;;;31.70;4.10;;;3.40;99.90;;;;;;5040379;28;20071;-39
2022/01/06 10:38:56;;;;;;;28.10;4.88;;;3.50;99.90;;;;;;5039231;28;20503;-39
2022/01/06 10:41:24;;;;;;;26.38;3.97;;;3.60;99.90;;;;;;5020669;28;20560;-40
2022/01/06 10:43:51;;;;;;;28.80;3.65;;;3.60;99.90;;;;;;5042396;28;20103;-40
2022/01/06 10:46:32;;;;;;;24.48;3.47;;;3.80;99.90;;;;;;5040733;28;20056;-40
2022/01/06 10:48:59;;;;;;;28.77;4.35;;;3.80;99.90;;;;;;5025789;28;20048;-40
2022/01/06 10:51:42;;;;;;;21.48;3.35;;;3.90;99.90;;;;;;5027705;28;20084;-40
2022/01/06 10:54:15;;;;;;;29.90;4.90;;;3.90;99.90;;;;;;5024884;28;20401;-40
2022/01/06 10:56:42;;;;;;;21.23;3.97;;;4.00;99.90;;;;;;5022944;28;20049;-40
2022/01/06 10:59:09;;;;;;;23.90;3.25;;;4.10;99.90;;;;;;5023363;28;20053;-40
2022/01/06 11:01:36;;;;;;;25.60;3.70;;;4.10;99.90;;;;;;5038818;28;20055;-40
2022/01/06 11:04:03;;;;;;;27.15;3.72;;;4.20;99.90;;;;;;5022557;28;20492;-41
2022/01/06 11:06:31;;;;;;;28.52;3.95;;;4.30;99.90;;;;;;5041692;28;20076;-41
2022/01/06 11:09:00;;;;;;;24.38;3.50;;;4.30;99.90;;;;;;5042408;28;20049;-42
2022/01/06 11:11:43;;;;;;;21.35;4.47;;;4.40;99.90;;;;;;5023043;28;20492;-39
2022/01/06 11:14:14;;;;;;;23.35;3.78;;;4.50;99.90;;;;;;5025041;28;20746;-40
2022/01/06 11:16:42;;;;;;;25.33;3.50;;;4.60;99.90;;;;;;5024546;28;20473;-40
2022/01/06 11:19:09;;;;;;;24.63;4.70;;;4.60;99.90;;;;;;5040850;28;20045;-39
2022/01/06 11:21:39;;;;;;;24.70;4.57;;;4.70;99.90;;;;;;5045746;28;20076;-40
2022/01/06 11:24:11;;;;;;;25.05;4.10;;;4.70;99.90;;;;;;5025658;28;20049;-40
2022/01/06 11:26:38;;;;;;;25.63;3.85;;;4.80;99.90;;;;;;5021199;28;20087;-39
2022/01/06 11:29:05;;;;;;;31.83;4.20;;;4.90;99.90;;;;;;5046807;28;20482;-40
2022/01/06 11:31:37;;;;;;;24.77;3.53;;;4.90;99.90;;;;;;5030417;28;20137;-40
2022/01/06 11:34:13;;;;;;;28.38;4.45;;;5.00;99.90;;;;;;5027620;28;20061;-40
2022/01/06 11:36:39;;;;;;;30.52;7.10;;;5.00;99.90;;;;;;5041668;28;20496;-39
2022/01/06 11:39:09;;;;;;;21.27;4.43;;;5.10;99.90;;;;;;5028694;28;20118;-39
2022/01/06 11:41:37;;;;;;;30.08;5.13;;;5.10;99.90;;;;;;5044213;28;20107;-39
2022/01/06 11:44:15;;;;;;;19.05;3.67;;;5.20;99.90;;;;;;5044611;28;20061;-39
2022/01/06 11:46:42;;;;;;;21.98;4.50;;;5.30;99.90;;;;;;5042325;28;20050;-39
2022/01/06 11:49:09;;;;;;;33.55;4.25;;;5.30;99.90;;;;;;5040719;28;20508;-38
2022/01/06 11:51:37;;;;;;;24.42;4.57;;;5.40;99.90;;;;;;5023570;28;20094;-39
2022/01/06 11:54:15;;;;;;;34.90;5.03;;;5.40;99.90;;;;;;5039438;28;20448;-39
2022/01/06 11:56:45;;;;;;;24.15;4.53;;;5.40;99.90;;;;;;5041198;28;20044;-39
2022/01/06 11:59:12;;;;;;;26.95;3.55;;;5.50;99.90;;;;;;5041730;28;20081;-39
2022/01/06 12:01:47;;;;;;;23.90;4.07;;;5.50;99.90;;;;;;5027880;28;20385;-39
2022/01/06 12:04:15;;;;;;;21.42;4.22;;;5.50;99.90;;;;;;5028382;28;20118;-39
2022/01/06 12:06:43;;;;;;;27.92;4.55;;;5.60;99.90;;;;;;5047204;28;20088;-39
2022/01/06 12:09:17;;;;;;;30.38;5.00;;;5.60;99.90;;;;;;5047176;28;20095;-39
2022/01/06 12:11:44;;;;;;;28.60;4.68;;;5.60;99.90;;;;;;5047513;28;20455;-39
2022/01/06 12:14:12;;;;;;;23.90;4.53;;;5.70;99.90;;;;;;5030504;28;20096;-39
2022/01/06 12:16:41;;;;;;;26.83;4.65;;;5.70;99.90;;;;;;5031951;28;20519;-39
2022/01/06 12:19:14;;;;;;;32.35;5.40;;;5.70;99.90;;;;;;5030508;28;20210;-40
2022/01/06 12:21:41;;;;;;;22.38;4.32;;;5.70;99.90;;;;;;5050480;28;20522;-40
2022/01/06 12:24:09;;;;;;;38.88;5.22;;;5.80;99.90;;;;;;5038163;28;20091;-40
2022/01/06 12:26:37;;;;;;;25.23;4.80;;;5.80;99.90;;;;;;5050333;28;20154;-40
2022/01/06 12:29:06;;;;;;;29.75;4.68;;;5.80;99.90;;;;;;5047241;28;20059;-40
2022/01/06 12:31:34;;;;;;;29.67;5.50;;;5.80;99.90;;;;;;5045863;28;20144;-40
2022/01/06 12:34:02;;;;;;;31.35;5.38;;;5.80;99.90;;;;;;5030589;28;20061;-40
2022/01/06 12:36:31;;;;;;;23.70;4.65;;;5.80;99.90;;;;;;5045627;28;20599;-40
2022/01/06 12:38:58;;;;;;;24.27;5.15;;;5.90;99.90;;;;;;5033210;28;20724;-40
2022/01/06 12:41:26;;;;;;;26.00;4.88;;;5.90;99.90;;;;;;5029704;28;20465;-41
2022/01/06 12:43:55;;;;;;;28.45;5.07;;;5.90;99.90;;;;;;5052919;28;20073;-41
2022/01/06 12:46:23;;;;;;;24.42;3.72;;;5.90;99.90;;;;;;5044730;28;20072;-40
2022/01/06 12:48:51;;;;;;;29.17;5.05;;;5.90;99.90;;;;;;5050637;28;20593;-43
2022/01/06 12:51:19;;;;;;;23.85;6.28;;;6.00;99.90;;;;;;5046288;28;20077;-41
2022/01/06 12:53:47;;;;;;;22.60;5.13;;;6.00;99.90;;;;;;5046715;28;20432;-41